sensor_id;sensor_type;location;lat;lon;timestamp;P1;durP1;ratioP1;P2;durP2;ratioP2
43933;SDS011;59081;42.706;23.306;2022-12-28T00:02:23;15.13;;;9.73;;
43933;SDS011;59081;42.706;23.306;2022-12-28T00:04:48;15.15;;;9.20;;
43933;SDS011;59081;42.706;23.306;2022-12-28T00:07:14;14.73;;;10.25;;
43933;SDS011;59081;42.706;23.306;2022-12-28T00:09:41;13.85;;;9.40;;
43933;SDS011;59081;42.706;23.306;2022-12-28T00:12:07;15.60;;;10.00;;
43933;SDS011;59081;42.706;23.306;2022-12-28T00:14:32;15.00;;;8.85;;
43933;SDS011;59081;42.706;23.306;2022-12-28T00:16:58;15.15;;;9.52;;
43933;SDS011;59081;42.706;23.306;2022-12-28T00:19:24;13.48;;;10.00;;
43933;SDS011;59081;42.706;23.306;2022-12-28T00:21:55;14.60;;;9.38;;
43933;SDS011;59081;42.706;23.306;2022-12-28T00:24:22;15.48;;;9.23;;
43933;SDS011;59081;42.706;23.306;2022-12-28T00:26:48;14.05;;;8.95;;
43933;SDS011;59081;42.706;23.306;2022-12-28T00:29:14;12.43;;;8.75;;
43933;SDS011;59081;42.706;23.306;2022-12-28T00:31:40;14.77;;;8.75;;
43933;SDS011;59081;42.706;23.306;2022-12-28T00:34:06;11.30;;;7.20;;
43933;SDS011;59081;42.706;23.306;2022-12-28T00:36:32;13.40;;;7.82;;
43933;SDS011;59081;42.706;23.306;2022-12-28T00:38:58;12.60;;;7.20;;
43933;SDS011;59081;42.706;23.306;2022-12-28T00:41:23;13.27;;;8.90;;
43933;SDS011;59081;42.706;23.306;2022-12-28T00:43:49;12.82;;;8.15;;
43933;SDS011;59081;42.706;23.306;2022-12-28T00:46:17;11.90;;;8.48;;
43933;SDS011;59081;42.706;23.306;2022-12-28T00:48:43;14.48;;;9.60;;
43933;SDS011;59081;42.706;23.306;2022-12-28T00:51:18;14.77;;;9.82;;
43933;SDS011;59081;42.706;23.306;2022-12-28T00:53:44;17.70;;;11.10;;
43933;SDS011;59081;42.706;23.306;2022-12-28T00:56:11;18.42;;;11.13;;
43933;SDS011;59081;42.706;23.306;2022-12-28T00:58:44;16.73;;;9.93;;
43933;SDS011;59081;42.706;23.306;2022-12-28T01:01:11;27.80;;;12.82;;
43933;SDS011;59081;42.706;23.306;2022-12-28T01:03:39;16.38;;;9.95;;
43933;SDS011;59081;42.706;23.306;2022-12-28T01:06:05;16.20;;;10.95;;
43933;SDS011;59081;42.706;23.306;2022-12-28T01:08:31;18.98;;;12.20;;
43933;SDS011;59081;42.706;23.306;2022-12-28T01:10:56;17.13;;;11.93;;
43933;SDS011;59081;42.706;23.306;2022-12-28T01:13:22;16.88;;;11.40;;
43933;SDS011;59081;42.706;23.306;2022-12-28T01:15:48;17.58;;;11.55;;
43933;SDS011;59081;42.706;23.306;2022-12-28T01:18:14;18.15;;;11.30;;
43933;SDS011;59081;42.706;23.306;2022-12-28T01:20:42;22.05;;;12.35;;
43933;SDS011;59081;42.706;23.306;2022-12-28T01:23:07;19.42;;;12.90;;
43933;SDS011;59081;42.706;23.306;2022-12-28T01:25:33;19.33;;;12.40;;
43933;SDS011;59081;42.706;23.306;2022-12-28T01:27:58;21.13;;;12.85;;
43933;SDS011;59081;42.706;23.306;2022-12-28T01:30:26;23.15;;;13.48;;
43933;SDS011;59081;42.706;23.306;2022-12-28T01:32:54;20.48;;;14.05;;
43933;SDS011;59081;42.706;23.306;2022-12-28T01:35:22;20.25;;;13.02;;
43933;SDS011;59081;42.706;23.306;2022-12-28T01:37:48;23.33;;;16.23;;
43933;SDS011;59081;42.706;23.306;2022-12-28T01:40:13;24.30;;;16.58;;
43933;SDS011;59081;42.706;23.306;2022-12-28T01:42:40;22.30;;;14.75;;
43933;SDS011;59081;42.706;23.306;2022-12-28T01:45:14;21.67;;;14.30;;
43933;SDS011;59081;42.706;23.306;2022-12-28T01:47:44;24.48;;;14.00;;
43933;SDS011;59081;42.706;23.306;2022-12-28T01:50:12;23.30;;;13.93;;
43933;SDS011;59081;42.706;23.306;2022-12-28T01:52:50;22.65;;;14.55;;
43933;SDS011;59081;42.706;23.306;2022-12-28T01:55:26;24.05;;;14.93;;
43933;SDS011;59081;42.706;23.306;2022-12-28T02:00:34;22.63;;;14.48;;
43933;SDS011;59081;42.706;23.306;2022-12-28T02:03:04;24.90;;;15.88;;
43933;SDS011;59081;42.706;23.306;2022-12-28T02:05:40;25.00;;;15.85;;
43933;SDS011;59081;42.706;23.306;2022-12-28T02:08:15;24.35;;;15.32;;
43933;SDS011;59081;42.706;23.306;2022-12-28T02:10:49;23.17;;;14.75;;
43933;SDS011;59081;42.706;23.306;2022-12-28T02:13:16;26.75;;;15.68;;
43933;SDS011;59081;42.706;23.306;2022-12-28T02:15:46;24.95;;;15.90;;
43933;SDS011;59081;42.706;23.306;2022-12-28T02:18:15;23.92;;;16.35;;
43933;SDS011;59081;42.706;23.306;2022-12-28T02:23:37;27.98;;;15.52;;
43933;SDS011;59081;42.706;23.306;2022-12-28T02:26:37;23.73;;;15.40;;
43933;SDS011;59081;42.706;23.306;2022-12-28T02:29:50;25.80;;;15.45;;
43933;SDS011;59081;42.706;23.306;2022-12-28T02:40:00;22.92;;;13.00;;
43933;SDS011;59081;42.706;23.306;2022-12-28T02:42:32;22.52;;;15.00;;
43933;SDS011;59081;42.706;23.306;2022-12-28T02:45:00;23.42;;;14.52;;
43933;SDS011;59081;42.706;23.306;2022-12-28T02:47:45;23.75;;;13.88;;
43933;SDS011;59081;42.706;23.306;2022-12-28T02:50:35;24.23;;;13.15;;
43933;SDS011;59081;42.706;23.306;2022-12-28T02:53:35;28.38;;;14.60;;
43933;SDS011;59081;42.706;23.306;2022-12-28T02:56:12;20.02;;;13.55;;
43933;SDS011;59081;42.706;23.306;2022-12-28T03:06:47;18.52;;;11.27;;
43933;SDS011;59081;42.706;23.306;2022-12-28T03:15:07;17.30;;;10.13;;
43933;SDS011;59081;42.706;23.306;2022-12-28T03:17:38;15.73;;;10.20;;
43933;SDS011;59081;42.706;23.306;2022-12-28T03:20:29;16.52;;;10.50;;
43933;SDS011;59081;42.706;23.306;2022-12-28T03:23:15;16.08;;;10.57;;
43933;SDS011;59081;42.706;23.306;2022-12-28T03:26:03;17.65;;;9.07;;
43933;SDS011;59081;42.706;23.306;2022-12-28T03:28:52;14.88;;;9.75;;
43933;SDS011;59081;42.706;23.306;2022-12-28T03:31:40;18.35;;;9.60;;
43933;SDS011;59081;42.706;23.306;2022-12-28T03:34:06;15.27;;;9.07;;
43933;SDS011;59081;42.706;23.306;2022-12-28T03:36:35;13.57;;;8.77;;
43933;SDS011;59081;42.706;23.306;2022-12-28T03:45:16;10.45;;;7.10;;
43933;SDS011;59081;42.706;23.306;2022-12-28T03:47:51;13.25;;;8.10;;
43933;SDS011;59081;42.706;23.306;2022-12-28T03:50:19;15.35;;;7.72;;
43933;SDS011;59081;42.706;23.306;2022-12-28T03:52:49;11.73;;;6.35;;
43933;SDS011;59081;42.706;23.306;2022-12-28T03:55:16;11.65;;;7.20;;
43933;SDS011;59081;42.706;23.306;2022-12-28T03:57:42;11.95;;;6.88;;
43933;SDS011;59081;42.706;23.306;2022-12-28T04:00:09;14.23;;;7.00;;
43933;SDS011;59081;42.706;23.306;2022-12-28T04:02:36;11.68;;;7.03;;
43933;SDS011;59081;42.706;23.306;2022-12-28T04:05:09;11.23;;;6.43;;
43933;SDS011;59081;42.706;23.306;2022-12-28T04:07:37;12.45;;;6.88;;
43933;SDS011;59081;42.706;23.306;2022-12-28T04:10:08;10.70;;;6.25;;
43933;SDS011;59081;42.706;23.306;2022-12-28T04:12:36;9.43;;;6.72;;
43933;SDS011;59081;42.706;23.306;2022-12-28T04:15:04;10.98;;;7.22;;
43933;SDS011;59081;42.706;23.306;2022-12-28T04:17:30;9.05;;;6.68;;
43933;SDS011;59081;42.706;23.306;2022-12-28T04:19:56;9.20;;;6.35;;
43933;SDS011;59081;42.706;23.306;2022-12-28T04:22:22;14.15;;;7.70;;
43933;SDS011;59081;42.706;23.306;2022-12-28T04:24:47;8.60;;;6.25;;
43933;SDS011;59081;42.706;23.306;2022-12-28T04:27:13;7.47;;;4.60;;
43933;SDS011;59081;42.706;23.306;2022-12-28T04:29:39;12.57;;;7.10;;
43933;SDS011;59081;42.706;23.306;2022-12-28T04:32:04;9.63;;;5.63;;
43933;SDS011;59081;42.706;23.306;2022-12-28T04:34:30;8.90;;;5.80;;
43933;SDS011;59081;42.706;23.306;2022-12-28T04:36:56;10.00;;;5.40;;
43933;SDS011;59081;42.706;23.306;2022-12-28T04:39:21;10.15;;;6.50;;
43933;SDS011;59081;42.706;23.306;2022-12-28T04:41:47;9.63;;;5.57;;
43933;SDS011;59081;42.706;23.306;2022-12-28T04:44:16;9.07;;;5.85;;
43933;SDS011;59081;42.706;23.306;2022-12-28T04:46:41;10.35;;;5.63;;
43933;SDS011;59081;42.706;23.306;2022-12-28T04:49:07;14.15;;;6.03;;
43933;SDS011;59081;42.706;23.306;2022-12-28T04:51:32;10.75;;;6.10;;
43933;SDS011;59081;42.706;23.306;2022-12-28T04:54:01;11.23;;;5.97;;
43933;SDS011;59081;42.706;23.306;2022-12-28T04:56:27;9.60;;;5.47;;
43933;SDS011;59081;42.706;23.306;2022-12-28T04:58:56;10.23;;;6.43;;
43933;SDS011;59081;42.706;23.306;2022-12-28T05:01:33;9.85;;;5.70;;
43933;SDS011;59081;42.706;23.306;2022-12-28T05:03:58;12.00;;;6.65;;
43933;SDS011;59081;42.706;23.306;2022-12-28T05:06:24;8.52;;;5.97;;
43933;SDS011;59081;42.706;23.306;2022-12-28T05:08:51;8.60;;;5.07;;
43933;SDS011;59081;42.706;23.306;2022-12-28T05:11:19;11.00;;;5.65;;
43933;SDS011;59081;42.706;23.306;2022-12-28T05:13:46;9.50;;;5.72;;
43933;SDS011;59081;42.706;23.306;2022-12-28T05:16:13;7.50;;;4.85;;
43933;SDS011;59081;42.706;23.306;2022-12-28T05:18:40;13.95;;;7.97;;
43933;SDS011;59081;42.706;23.306;2022-12-28T05:21:07;12.73;;;5.95;;
43933;SDS011;59081;42.706;23.306;2022-12-28T05:23:36;12.98;;;6.57;;
43933;SDS011;59081;42.706;23.306;2022-12-28T05:26:05;12.07;;;5.93;;
43933;SDS011;59081;42.706;23.306;2022-12-28T05:28:33;10.52;;;6.45;;
43933;SDS011;59081;42.706;23.306;2022-12-28T05:31:00;8.60;;;5.47;;
43933;SDS011;59081;42.706;23.306;2022-12-28T05:33:27;10.60;;;5.82;;
43933;SDS011;59081;42.706;23.306;2022-12-28T05:35:54;9.35;;;5.88;;
43933;SDS011;59081;42.706;23.306;2022-12-28T05:38:35;9.05;;;5.35;;
43933;SDS011;59081;42.706;23.306;2022-12-28T05:41:05;9.45;;;5.50;;
43933;SDS011;59081;42.706;23.306;2022-12-28T05:43:42;9.90;;;4.85;;
43933;SDS011;59081;42.706;23.306;2022-12-28T05:46:10;8.15;;;5.05;;
43933;SDS011;59081;42.706;23.306;2022-12-28T05:48:39;10.30;;;5.20;;
43933;SDS011;59081;42.706;23.306;2022-12-28T05:51:09;7.82;;;4.78;;
43933;SDS011;59081;42.706;23.306;2022-12-28T05:53:36;10.57;;;5.43;;
43933;SDS011;59081;42.706;23.306;2022-12-28T05:56:15;8.35;;;5.13;;
43933;SDS011;59081;42.706;23.306;2022-12-28T05:58:43;13.10;;;5.28;;
43933;SDS011;59081;42.706;23.306;2022-12-28T06:01:17;9.00;;;4.50;;
43933;SDS011;59081;42.706;23.306;2022-12-28T06:03:45;8.82;;;5.78;;
43933;SDS011;59081;42.706;23.306;2022-12-28T06:06:15;10.82;;;5.65;;
43933;SDS011;59081;42.706;23.306;2022-12-28T06:08:45;9.70;;;6.32;;
43933;SDS011;59081;42.706;23.306;2022-12-28T06:11:13;9.43;;;5.45;;
43933;SDS011;59081;42.706;23.306;2022-12-28T06:13:40;11.23;;;5.90;;
43933;SDS011;59081;42.706;23.306;2022-12-28T06:16:16;9.52;;;6.68;;
43933;SDS011;59081;42.706;23.306;2022-12-28T06:18:44;15.27;;;6.05;;
43933;SDS011;59081;42.706;23.306;2022-12-28T06:21:14;13.05;;;5.47;;
43933;SDS011;59081;42.706;23.306;2022-12-28T06:23:41;12.38;;;5.80;;
43933;SDS011;59081;42.706;23.306;2022-12-28T06:26:10;10.57;;;6.03;;
43933;SDS011;59081;42.706;23.306;2022-12-28T06:28:40;21.05;;;7.28;;
43933;SDS011;59081;42.706;23.306;2022-12-28T06:31:12;12.48;;;6.20;;
43933;SDS011;59081;42.706;23.306;2022-12-28T06:33:38;12.82;;;6.50;;
43933;SDS011;59081;42.706;23.306;2022-12-28T06:36:05;17.17;;;7.45;;
43933;SDS011;59081;42.706;23.306;2022-12-28T06:38:38;17.40;;;6.72;;
43933;SDS011;59081;42.706;23.306;2022-12-28T06:41:06;11.35;;;6.05;;
43933;SDS011;59081;42.706;23.306;2022-12-28T06:43:34;10.65;;;6.65;;
43933;SDS011;59081;42.706;23.306;2022-12-28T06:46:03;12.40;;;6.97;;
43933;SDS011;59081;42.706;23.306;2022-12-28T06:48:32;26.90;;;7.55;;
43933;SDS011;59081;42.706;23.306;2022-12-28T06:51:00;14.90;;;7.10;;
43933;SDS011;59081;42.706;23.306;2022-12-28T06:56:02;46.13;;;22.45;;
43933;SDS011;59081;42.706;23.306;2022-12-28T06:58:32;20.17;;;11.00;;
43933;SDS011;59081;42.706;23.306;2022-12-28T07:01:05;20.48;;;11.25;;
43933;SDS011;59081;42.706;23.306;2022-12-28T07:03:36;14.35;;;7.70;;
43933;SDS011;59081;42.706;23.306;2022-12-28T07:06:02;15.38;;;8.18;;
43933;SDS011;59081;42.706;23.306;2022-12-28T07:08:29;13.65;;;7.95;;
43933;SDS011;59081;42.706;23.306;2022-12-28T07:11:02;14.77;;;8.32;;
43933;SDS011;59081;42.706;23.306;2022-12-28T07:13:33;11.75;;;7.03;;
43933;SDS011;59081;42.706;23.306;2022-12-28T07:16:09;12.27;;;6.93;;
43933;SDS011;59081;42.706;23.306;2022-12-28T07:18:36;12.13;;;6.72;;
43933;SDS011;59081;42.706;23.306;2022-12-28T07:21:04;15.32;;;9.05;;
43933;SDS011;59081;42.706;23.306;2022-12-28T07:23:32;18.65;;;8.15;;
43933;SDS011;59081;42.706;23.306;2022-12-28T07:26:03;13.77;;;7.25;;
43933;SDS011;59081;42.706;23.306;2022-12-28T07:28:38;17.30;;;8.18;;
43933;SDS011;59081;42.706;23.306;2022-12-28T07:31:08;14.68;;;8.18;;
43933;SDS011;59081;42.706;23.306;2022-12-28T07:33:41;17.45;;;8.88;;
43933;SDS011;59081;42.706;23.306;2022-12-28T07:36:09;16.27;;;7.88;;
43933;SDS011;59081;42.706;23.306;2022-12-28T07:38:36;14.02;;;8.68;;
43933;SDS011;59081;42.706;23.306;2022-12-28T07:41:03;16.60;;;7.93;;
43933;SDS011;59081;42.706;23.306;2022-12-28T07:46:02;17.08;;;7.45;;
43933;SDS011;59081;42.706;23.306;2022-12-28T07:48:30;14.88;;;8.13;;
43933;SDS011;59081;42.706;23.306;2022-12-28T07:51:06;14.25;;;8.57;;
43933;SDS011;59081;42.706;23.306;2022-12-28T07:53:41;15.95;;;8.32;;
43933;SDS011;59081;42.706;23.306;2022-12-28T07:56:10;19.88;;;10.48;;
43933;SDS011;59081;42.706;23.306;2022-12-28T07:58:37;20.35;;;8.77;;
43933;SDS011;59081;42.706;23.306;2022-12-28T08:01:04;14.35;;;8.35;;
43933;SDS011;59081;42.706;23.306;2022-12-28T08:03:37;17.65;;;8.48;;
43933;SDS011;59081;42.706;23.306;2022-12-28T08:06:16;13.15;;;8.25;;
43933;SDS011;59081;42.706;23.306;2022-12-28T08:08:46;13.77;;;7.90;;
43933;SDS011;59081;42.706;23.306;2022-12-28T08:11:17;15.00;;;7.88;;
43933;SDS011;59081;42.706;23.306;2022-12-28T08:13:46;15.38;;;9.10;;
43933;SDS011;59081;42.706;23.306;2022-12-28T08:16:14;17.13;;;8.52;;
43933;SDS011;59081;42.706;23.306;2022-12-28T08:18:42;19.55;;;8.93;;
43933;SDS011;59081;42.706;23.306;2022-12-28T08:21:15;15.95;;;7.03;;
43933;SDS011;59081;42.706;23.306;2022-12-28T08:23:42;11.18;;;6.25;;
43933;SDS011;59081;42.706;23.306;2022-12-28T08:26:09;10.15;;;5.80;;
43933;SDS011;59081;42.706;23.306;2022-12-28T08:28:42;8.50;;;5.35;;
43933;SDS011;59081;42.706;23.306;2022-12-28T08:31:10;11.07;;;6.07;;
43933;SDS011;59081;42.706;23.306;2022-12-28T08:33:40;9.45;;;5.75;;
43933;SDS011;59081;42.706;23.306;2022-12-28T08:36:07;11.95;;;6.20;;
43933;SDS011;59081;42.706;23.306;2022-12-28T08:38:33;11.45;;;5.90;;
43933;SDS011;59081;42.706;23.306;2022-12-28T08:41:06;11.55;;;7.15;;
43933;SDS011;59081;42.706;23.306;2022-12-28T08:43:34;13.32;;;6.55;;
43933;SDS011;59081;42.706;23.306;2022-12-28T08:46:04;14.07;;;8.38;;
43933;SDS011;59081;42.706;23.306;2022-12-28T08:48:35;15.60;;;7.13;;
43933;SDS011;59081;42.706;23.306;2022-12-28T08:51:07;9.55;;;5.43;;
43933;SDS011;59081;42.706;23.306;2022-12-28T08:53:34;12.52;;;6.70;;
43933;SDS011;59081;42.706;23.306;2022-12-28T08:58:29;13.15;;;7.55;;
43933;SDS011;59081;42.706;23.306;2022-12-28T09:00:55;13.27;;;7.57;;
43933;SDS011;59081;42.706;23.306;2022-12-28T09:03:21;12.23;;;7.03;;
43933;SDS011;59081;42.706;23.306;2022-12-28T09:05:46;9.68;;;5.85;;
43933;SDS011;59081;42.706;23.306;2022-12-28T09:08:12;13.05;;;7.03;;
43933;SDS011;59081;42.706;23.306;2022-12-28T09:10:38;12.45;;;7.65;;
43933;SDS011;59081;42.706;23.306;2022-12-28T09:13:03;9.93;;;6.25;;
43933;SDS011;59081;42.706;23.306;2022-12-28T09:15:29;14.45;;;7.13;;
43933;SDS011;59081;42.706;23.306;2022-12-28T09:17:55;11.82;;;5.88;;
43933;SDS011;59081;42.706;23.306;2022-12-28T09:20:20;12.82;;;7.22;;
43933;SDS011;59081;42.706;23.306;2022-12-28T09:22:46;11.95;;;6.53;;
43933;SDS011;59081;42.706;23.306;2022-12-28T09:25:12;10.63;;;6.97;;
43933;SDS011;59081;42.706;23.306;2022-12-28T09:27:40;12.70;;;7.53;;
43933;SDS011;59081;42.706;23.306;2022-12-28T09:30:11;13.85;;;7.55;;
43933;SDS011;59081;42.706;23.306;2022-12-28T09:32:37;15.95;;;8.00;;
43933;SDS011;59081;42.706;23.306;2022-12-28T09:35:03;14.23;;;8.63;;
43933;SDS011;59081;42.706;23.306;2022-12-28T09:37:29;13.68;;;7.60;;
43933;SDS011;59081;42.706;23.306;2022-12-28T09:39:54;12.93;;;7.60;;
43933;SDS011;59081;42.706;23.306;2022-12-28T09:42:20;12.25;;;7.53;;
43933;SDS011;59081;42.706;23.306;2022-12-28T09:55:37;12.23;;;7.30;;
43933;SDS011;59081;42.706;23.306;2022-12-28T09:58:10;13.68;;;7.43;;
43933;SDS011;59081;42.706;23.306;2022-12-28T10:05:51;18.50;;;5.80;;
43933;SDS011;59081;42.706;23.306;2022-12-28T10:08:20;10.77;;;5.43;;
43933;SDS011;59081;42.706;23.306;2022-12-28T10:10:48;15.05;;;5.90;;
43933;SDS011;59081;42.706;23.306;2022-12-28T10:15:43;13.15;;;6.70;;
43933;SDS011;59081;42.706;23.306;2022-12-28T10:18:10;13.70;;;7.55;;
43933;SDS011;59081;42.706;23.306;2022-12-28T10:20:45;11.40;;;6.40;;
43933;SDS011;59081;42.706;23.306;2022-12-28T10:23:15;11.23;;;6.03;;
43933;SDS011;59081;42.706;23.306;2022-12-28T10:25:45;10.63;;;5.78;;
43933;SDS011;59081;42.706;23.306;2022-12-28T10:28:12;15.23;;;7.03;;
43933;SDS011;59081;42.706;23.306;2022-12-28T10:30:45;14.23;;;6.90;;
43933;SDS011;59081;42.706;23.306;2022-12-28T10:33:16;14.15;;;5.80;;
43933;SDS011;59081;42.706;23.306;2022-12-28T10:35:50;12.20;;;7.15;;
43933;SDS011;59081;42.706;23.306;2022-12-28T10:38:22;12.55;;;6.18;;
43933;SDS011;59081;42.706;23.306;2022-12-28T10:43:36;10.63;;;6.43;;
43933;SDS011;59081;42.706;23.306;2022-12-28T10:46:14;12.93;;;6.95;;
43933;SDS011;59081;42.706;23.306;2022-12-28T10:48:51;13.65;;;7.70;;
43933;SDS011;59081;42.706;23.306;2022-12-28T10:51:25;11.40;;;7.15;;
43933;SDS011;59081;42.706;23.306;2022-12-28T10:53:56;12.20;;;6.95;;
43933;SDS011;59081;42.706;23.306;2022-12-28T11:04:15;11.75;;;6.32;;
43933;SDS011;59081;42.706;23.306;2022-12-28T11:09:24;16.08;;;8.23;;
43933;SDS011;59081;42.706;23.306;2022-12-28T11:12:14;15.73;;;8.18;;
43933;SDS011;59081;42.706;23.306;2022-12-28T11:14:42;13.00;;;7.88;;
43933;SDS011;59081;42.706;23.306;2022-12-28T11:17:16;80.60;;;48.22;;
43933;SDS011;59081;42.706;23.306;2022-12-28T11:19:44;31.42;;;17.63;;
43933;SDS011;59081;42.706;23.306;2022-12-28T11:22:14;15.07;;;8.27;;
43933;SDS011;59081;42.706;23.306;2022-12-28T11:24:52;13.98;;;8.35;;
43933;SDS011;59081;42.706;23.306;2022-12-28T11:27:23;11.27;;;7.18;;
43933;SDS011;59081;42.706;23.306;2022-12-28T11:29:50;13.25;;;7.25;;
43933;SDS011;59081;42.706;23.306;2022-12-28T11:32:31;14.02;;;7.25;;
43933;SDS011;59081;42.706;23.306;2022-12-28T11:35:02;15.50;;;7.53;;
43933;SDS011;59081;42.706;23.306;2022-12-28T11:37:28;14.27;;;7.22;;
43933;SDS011;59081;42.706;23.306;2022-12-28T11:39:54;15.82;;;8.95;;
43933;SDS011;59081;42.706;23.306;2022-12-28T11:45:01;19.07;;;9.87;;
43933;SDS011;59081;42.706;23.306;2022-12-28T11:47:36;18.35;;;10.70;;
43933;SDS011;59081;42.706;23.306;2022-12-28T11:53:00;15.07;;;8.85;;
43933;SDS011;59081;42.706;23.306;2022-12-28T11:58:43;17.27;;;7.90;;
43933;SDS011;59081;42.706;23.306;2022-12-28T12:01:40;13.88;;;7.18;;
43933;SDS011;59081;42.706;23.306;2022-12-28T12:11:49;14.80;;;8.57;;
43933;SDS011;59081;42.706;23.306;2022-12-28T12:14:16;14.27;;;7.78;;
43933;SDS011;59081;42.706;23.306;2022-12-28T12:16:51;19.40;;;8.63;;
43933;SDS011;59081;42.706;23.306;2022-12-28T12:19:27;15.55;;;8.07;;
43933;SDS011;59081;42.706;23.306;2022-12-28T12:22:05;12.57;;;7.88;;
43933;SDS011;59081;42.706;23.306;2022-12-28T12:24:47;17.60;;;8.15;;
43933;SDS011;59081;42.706;23.306;2022-12-28T12:27:40;14.43;;;9.43;;
43933;SDS011;59081;42.706;23.306;2022-12-28T12:30:18;18.13;;;10.48;;
43933;SDS011;59081;42.706;23.306;2022-12-28T12:33:29;16.05;;;9.90;;
43933;SDS011;59081;42.706;23.306;2022-12-28T12:35:49;23.33;;;11.20;;
43933;SDS011;59081;42.706;23.306;2022-12-28T12:44:37;16.85;;;9.77;;
43933;SDS011;59081;42.706;23.306;2022-12-28T13:08:35;23.60;;;13.23;;
43933;SDS011;59081;42.706;23.306;2022-12-28T13:11:10;20.38;;;11.20;;
43933;SDS011;59081;42.706;23.306;2022-12-28T13:13:39;26.97;;;12.47;;
43933;SDS011;59081;42.706;23.306;2022-12-28T13:16:09;20.95;;;12.38;;
43933;SDS011;59081;42.706;23.306;2022-12-28T13:18:38;23.42;;;13.80;;
43933;SDS011;59081;42.706;23.306;2022-12-28T13:21:04;22.85;;;13.23;;
43933;SDS011;59081;42.706;23.306;2022-12-28T13:23:40;24.75;;;14.43;;
43933;SDS011;59081;42.706;23.306;2022-12-28T13:26:08;29.70;;;14.05;;
43933;SDS011;59081;42.706;23.306;2022-12-28T13:28:35;23.98;;;13.10;;
43933;SDS011;59081;42.706;23.306;2022-12-28T13:31:20;26.17;;;14.27;;
43933;SDS011;59081;42.706;23.306;2022-12-28T13:34:00;22.80;;;13.13;;
43933;SDS011;59081;42.706;23.306;2022-12-28T13:36:28;22.17;;;14.18;;
43933;SDS011;59081;42.706;23.306;2022-12-28T13:39:04;21.30;;;13.30;;
43933;SDS011;59081;42.706;23.306;2022-12-28T13:44:20;38.28;;;23.83;;
43933;SDS011;59081;42.706;23.306;2022-12-28T13:46:59;43.72;;;26.45;;
43933;SDS011;59081;42.706;23.306;2022-12-28T13:49:30;18.10;;;12.23;;
43933;SDS011;59081;42.706;23.306;2022-12-28T13:52:07;20.23;;;11.63;;
43933;SDS011;59081;42.706;23.306;2022-12-28T13:54:36;19.65;;;11.70;;
43933;SDS011;59081;42.706;23.306;2022-12-28T13:57:02;17.40;;;10.52;;
43933;SDS011;59081;42.706;23.306;2022-12-28T13:59:30;17.52;;;11.10;;
43933;SDS011;59081;42.706;23.306;2022-12-28T14:01:58;17.13;;;10.60;;
43933;SDS011;59081;42.706;23.306;2022-12-28T14:04:24;19.17;;;10.35;;
43933;SDS011;59081;42.706;23.306;2022-12-28T14:06:51;20.67;;;11.50;;
43933;SDS011;59081;42.706;23.306;2022-12-28T14:09:19;22.30;;;12.10;;
43933;SDS011;59081;42.706;23.306;2022-12-28T14:11:45;28.20;;;18.25;;
43933;SDS011;59081;42.706;23.306;2022-12-28T14:14:12;20.75;;;11.80;;
43933;SDS011;59081;42.706;23.306;2022-12-28T14:16:40;20.35;;;11.70;;
43933;SDS011;59081;42.706;23.306;2022-12-28T14:19:06;21.27;;;12.60;;
43933;SDS011;59081;42.706;23.306;2022-12-28T14:21:50;23.65;;;11.85;;
43933;SDS011;59081;42.706;23.306;2022-12-28T14:24:16;21.23;;;11.60;;
43933;SDS011;59081;42.706;23.306;2022-12-28T14:26:50;24.98;;;12.55;;
43933;SDS011;59081;42.706;23.306;2022-12-28T14:29:29;20.77;;;12.38;;
43933;SDS011;59081;42.706;23.306;2022-12-28T14:31:57;24.83;;;11.07;;
43933;SDS011;59081;42.706;23.306;2022-12-28T14:34:29;20.70;;;11.60;;
43933;SDS011;59081;42.706;23.306;2022-12-28T14:36:58;18.58;;;10.38;;
43933;SDS011;59081;42.706;23.306;2022-12-28T14:39:34;22.38;;;11.25;;
43933;SDS011;59081;42.706;23.306;2022-12-28T14:42:04;18.58;;;10.35;;
43933;SDS011;59081;42.706;23.306;2022-12-28T14:44:41;20.75;;;10.77;;
43933;SDS011;59081;42.706;23.306;2022-12-28T14:50:24;19.20;;;9.75;;
43933;SDS011;59081;42.706;23.306;2022-12-28T14:53:09;17.92;;;10.38;;
43933;SDS011;59081;42.706;23.306;2022-12-28T14:58:22;22.88;;;10.68;;
43933;SDS011;59081;42.706;23.306;2022-12-28T15:00:57;22.42;;;11.93;;
43933;SDS011;59081;42.706;23.306;2022-12-28T15:03:25;17.58;;;10.43;;
43933;SDS011;59081;42.706;23.306;2022-12-28T15:05:53;18.23;;;10.90;;
43933;SDS011;59081;42.706;23.306;2022-12-28T15:08:20;21.67;;;12.55;;
43933;SDS011;59081;42.706;23.306;2022-12-28T15:10:52;19.48;;;10.80;;
43933;SDS011;59081;42.706;23.306;2022-12-28T15:13:24;16.60;;;9.38;;
43933;SDS011;59081;42.706;23.306;2022-12-28T15:15:52;18.27;;;11.48;;
43933;SDS011;59081;42.706;23.306;2022-12-28T15:18:18;17.88;;;12.13;;
43933;SDS011;59081;42.706;23.306;2022-12-28T15:20:44;22.20;;;11.93;;
43933;SDS011;59081;42.706;23.306;2022-12-28T15:23:10;25.88;;;13.80;;
43933;SDS011;59081;42.706;23.306;2022-12-28T15:25:35;26.40;;;15.32;;
43933;SDS011;59081;42.706;23.306;2022-12-28T15:28:01;26.67;;;11.85;;
43933;SDS011;59081;42.706;23.306;2022-12-28T15:30:27;26.75;;;14.00;;
43933;SDS011;59081;42.706;23.306;2022-12-28T15:32:56;26.25;;;15.57;;
43933;SDS011;59081;42.706;23.306;2022-12-28T15:35:22;44.20;;;24.48;;
43933;SDS011;59081;42.706;23.306;2022-12-28T15:37:48;29.65;;;15.48;;
43933;SDS011;59081;42.706;23.306;2022-12-28T15:42:49;31.73;;;16.45;;
43933;SDS011;59081;42.706;23.306;2022-12-28T15:47:56;41.97;;;20.25;;
43933;SDS011;59081;42.706;23.306;2022-12-28T15:50:25;33.38;;;16.80;;
43933;SDS011;59081;42.706;23.306;2022-12-28T15:53:01;23.17;;;14.82;;
43933;SDS011;59081;42.706;23.306;2022-12-28T15:55:44;38.15;;;21.45;;
43933;SDS011;59081;42.706;23.306;2022-12-28T15:58:22;31.13;;;19.05;;
43933;SDS011;59081;42.706;23.306;2022-12-28T16:00:51;33.28;;;18.92;;
43933;SDS011;59081;42.706;23.306;2022-12-28T16:03:16;32.05;;;19.50;;
43933;SDS011;59081;42.706;23.306;2022-12-28T16:05:42;35.75;;;17.33;;
43933;SDS011;59081;42.706;23.306;2022-12-28T16:08:07;39.88;;;20.80;;
43933;SDS011;59081;42.706;23.306;2022-12-28T16:10:33;42.78;;;20.73;;
43933;SDS011;59081;42.706;23.306;2022-12-28T16:12:58;42.92;;;22.63;;
43933;SDS011;59081;42.706;23.306;2022-12-28T16:15:24;45.60;;;23.63;;
43933;SDS011;59081;42.706;23.306;2022-12-28T16:17:50;47.53;;;25.17;;
43933;SDS011;59081;42.706;23.306;2022-12-28T16:20:16;36.13;;;21.40;;
43933;SDS011;59081;42.706;23.306;2022-12-28T16:22:41;39.05;;;24.55;;
43933;SDS011;59081;42.706;23.306;2022-12-28T16:25:12;37.77;;;22.33;;
43933;SDS011;59081;42.706;23.306;2022-12-28T16:27:38;39.53;;;23.73;;
43933;SDS011;59081;42.706;23.306;2022-12-28T16:30:03;40.42;;;25.10;;
43933;SDS011;59081;42.706;23.306;2022-12-28T16:32:30;41.53;;;23.88;;
43933;SDS011;59081;42.706;23.306;2022-12-28T16:34:56;38.65;;;22.90;;
43933;SDS011;59081;42.706;23.306;2022-12-28T16:37:22;51.08;;;31.10;;
43933;SDS011;59081;42.706;23.306;2022-12-28T16:39:48;47.50;;;28.85;;
43933;SDS011;59081;42.706;23.306;2022-12-28T16:42:13;44.65;;;26.52;;
43933;SDS011;59081;42.706;23.306;2022-12-28T16:44:39;51.25;;;30.13;;
43933;SDS011;59081;42.706;23.306;2022-12-28T16:47:05;49.35;;;30.77;;